Los Alamitos Army Air Field Los Alamitos US
ICAO: KSLI
IATA: SLI
Category: Medium
Scheduled Services: No

Elevation: 32 ft
TransAlt. 18000 ft.

Airport Communications:
SOCAL APP/DEP:124.65
AFLD OPS ADVSY SVC:126.2
GND:126.95
AASF OPS:41.5
PMSV METRO:23.98
ARCOM OPS:139.05
TWR:123.85

KSLI Zoom In..

If you have problems with the map follow the link
https://www.worldairports.se/pages/airport.php?
ICAO=KSLI

Runways:

(A) RW 04L length 5900 ft width 150 ft
---- / hdg 40

(B) RW 04R length 8000 ft width 200 ft
---- / hdg 40

(C) RW 22L length 8000 ft width 200 ft
---- / hdg 220

(D) RW 22R length 5900 ft width 150 ft
---- / hdg 220

Location; KSLI
Day. 21 / Time. 19.56 Zulu
* Altimeter: 30.16
* Temperature: 14° c. 57.2°f.
* Wind from: 200° Speed 05 kn.
Dewpoint: 11° c.
Visibility: 10 Statute Miles.
Clouds: Broken 3000 ft.
Clouds: Overcast 4000 ft.

KSLI 211956Z 20005KT 10SM BKN030 OVC040 14/11 A3016 RMK AO2A SLP216 T01410107


Wind From 200°
Speed 05 kn.

 
 
jpsmedia worldairports.se 2020   terms of use